createdAt,value
2019-01-05T00:02:57.331Z,100211.61
2019-01-05T00:06:30.659Z,100213.77
2019-01-05T00:09:59.956Z,100209.47
2019-01-05T00:13:27.300Z,100212.90
2019-01-05T00:16:51.222Z,100223.23
2019-01-05T00:20:15.288Z,100218.23
2019-01-05T00:23:39.940Z,100209.61
2019-01-05T00:27:04.516Z,100214.86
2019-01-05T00:30:44.421Z,100210.31
2019-01-05T00:34:12.768Z,100210.69
2019-01-05T00:37:46.258Z,100214.29
2019-01-05T00:41:08.656Z,100205.83
2019-01-05T00:44:32.548Z,100217.54
2019-01-05T00:48:16.680Z,100213.80
2019-01-05T00:51:45.935Z,100212.20
2019-01-05T00:55:13.765Z,100201.75
2019-01-05T00:58:48.536Z,100202.45
2019-01-05T01:02:28.796Z,100200.27
2019-01-05T01:05:52.184Z,100202.39
2019-01-05T01:09:28.976Z,100193.89
2019-01-05T01:13:08.654Z,100183.06
2019-01-05T01:16:32.029Z,100185.78
2019-01-05T01:19:53.398Z,100179.81
2019-01-05T01:23:33.176Z,100178.53
2019-01-05T01:27:07.345Z,100178.67
2019-01-05T01:30:30.624Z,100173.91
2019-01-05T01:33:58.092Z,100161.25
2019-01-05T01:37:32.083Z,100161.55
2019-01-05T01:41:03.086Z,100166.80
2019-01-05T01:44:43.094Z,100162.50
2019-01-05T01:48:21.515Z,100167.59
2019-01-05T01:51:51.895Z,100155.08
2019-01-05T01:55:18.049Z,100149.44
2019-01-05T01:58:48.564Z,100138.96
2019-01-05T02:02:26.791Z,100124.50
2019-01-05T02:05:57.442Z,100127.75
2019-01-05T02:09:21.821Z,100119.31
2019-01-05T02:12:56.077Z,100104.63
2019-01-05T02:16:36.727Z,100104.09
2019-01-05T02:20:18.002Z,100100.36
2019-01-05T02:24:26.442Z,100106.05
2019-01-05T02:28:30.762Z,100113.91
2019-01-05T02:32:28.424Z,100104.04
2019-01-05T02:36:27.087Z,100107.17
2019-01-05T02:40:23.124Z,100100.48
2019-01-05T02:44:33.631Z,100097.20
2019-01-05T02:48:53.341Z,100087.67
2019-01-05T02:52:52.837Z,100083.64
2019-01-05T02:57:26.244Z,100080.77
2019-01-05T03:01:30.917Z,100070.56
2019-01-05T03:05:54.920Z,100061.61
2019-01-05T03:10:24.160Z,100062.90
2019-01-05T03:14:49.236Z,100065.02
2019-01-05T03:19:20.469Z,100054.17
2019-01-05T03:23:13.868Z,100051.87
2019-01-05T03:27:19.238Z,100048.25
2019-01-05T03:31:25.987Z,100052.23
2019-01-05T03:35:20.537Z,100051.61
2019-01-05T03:39:19.257Z,100048.82
2019-01-05T03:43:41.734Z,100051.75
2019-01-05T03:47:43.667Z,100043.77
2019-01-05T03:51:49.420Z,100042.03
2019-01-05T03:56:12.481Z,100035.81
2019-01-05T04:00:28.736Z,100026.89
2019-01-05T04:04:40.689Z,100022.43
2019-01-05T04:08:52.541Z,100026.47
2019-01-05T04:13:01.140Z,100027.45
2019-01-05T04:17:05.087Z,100021.20
2019-01-05T04:20:52.654Z,100022.31
2019-01-05T04:25:02.676Z,100019.89
2019-01-05T04:29:05.202Z,100010.64
2019-01-05T04:33:15.828Z,99999.08
2019-01-05T04:37:19.717Z,100003.37
2019-01-05T04:41:23.566Z,100000.19
2019-01-05T04:45:22.468Z,99993.38
2019-01-05T04:49:27.057Z,99988.17
2019-01-05T04:53:42.768Z,99985.23
2019-01-05T04:57:59.722Z,99986.28
2019-01-05T05:02:25.033Z,99988.72
2019-01-05T05:06:37.251Z,99990.88
2019-01-05T05:10:53.168Z,99996.58
2019-01-05T05:14:59.871Z,99990.42
2019-01-05T05:19:08.801Z,100004.48
2019-01-05T05:23:21.513Z,100006.41
2019-01-05T05:27:15.156Z,100008.57
2019-01-05T05:31:38.784Z,100003.63
2019-01-05T05:35:58.054Z,100006.25
2019-01-05T05:40:21.032Z,99994.95
2019-01-05T05:44:47.634Z,99997.47
2019-01-05T05:48:36.411Z,100000.17
2019-01-05T05:52:34.290Z,99993.16
2019-01-05T05:56:56.442Z,99994.22
2019-01-05T06:01:16.113Z,99991.20
2019-01-05T06:05:26.289Z,99984.66
2019-01-05T06:09:28.835Z,99991.25
2019-01-05T06:13:31.695Z,99989.45
2019-01-05T06:17:42.345Z,99987.88
2019-01-05T06:21:43.849Z,99977.81
2019-01-05T06:26:05.351Z,99981.34
2019-01-05T06:30:27.176Z,99986.73
2019-01-05T06:34:27.613Z,99984.11
2019-01-05T06:38:32.033Z,99987.03
2019-01-05T06:42:37.602Z,99989.61
2019-01-05T06:46:38.628Z,99997.16
2019-01-05T06:50:40.263Z,99995.84
2019-01-05T06:54:43.343Z,100006.38
2019-01-05T06:58:50.075Z,100005.74
2019-01-05T07:02:54.704Z,100001.50
2019-01-05T07:07:24.721Z,100006.00
2019-01-05T07:11:56.127Z,100002.98
2019-01-05T07:16:05.012Z,100004.48
2019-01-05T07:20:04.899Z,99995.84
2019-01-05T07:24:22.778Z,99994.48
2019-01-05T07:28:21.681Z,99994.58
2019-01-05T07:32:25.434Z,100008.95
2019-01-05T07:36:49.900Z,100004.00
2019-01-05T07:41:09.792Z,100000.73
2019-01-05T07:45:05.863Z,99992.20
2019-01-05T07:49:04.695Z,99991.55
2019-01-05T07:53:24.393Z,99989.30
2019-01-05T07:57:33.794Z,99987.61
2019-01-05T08:01:58.900Z,99976.53
2019-01-05T08:06:07.344Z,99968.63
2019-01-05T08:10:06.176Z,99964.38
2019-01-05T08:14:52.622Z,99958.66
2019-01-05T08:19:21.384Z,99949.97
2019-01-05T08:23:35.375Z,99946.21
2019-01-05T08:27:25.280Z,99938.80
2019-01-05T08:31:30.720Z,99938.71
2019-01-05T08:35:28.740Z,99935.70
2019-01-05T08:39:57.778Z,99933.17
2019-01-05T08:44:00.279Z,99929.45
2019-01-05T08:48:03.657Z,99924.35
2019-01-05T08:52:09.130Z,99924.33
2019-01-05T08:56:32.471Z,99914.58
2019-01-05T09:01:04.892Z,99906.73
2019-01-05T09:05:49.059Z,99896.41
2019-01-05T09:09:48.392Z,99889.24
2019-01-05T09:14:08.450Z,99883.98
2019-01-05T09:18:11.534Z,99877.10
2019-01-05T09:22:29.859Z,99862.97
2019-01-05T09:26:59.137Z,99857.47
2019-01-05T09:31:07.941Z,99852.41
2019-01-05T09:35:16.845Z,99838.77
2019-01-05T09:39:35.393Z,99826.88
2019-01-05T09:43:34.708Z,99807.77
2019-01-05T09:47:32.450Z,99803.91
2019-01-05T09:51:31.507Z,99794.80
2019-01-05T09:55:46.977Z,99782.50
2019-01-05T09:59:51.259Z,99779.94
2019-01-05T10:03:54.149Z,99774.66
2019-01-05T10:07:59.831Z,99758.25
2019-01-05T10:11:57.168Z,99759.78
2019-01-05T10:16:10.588Z,99748.24
2019-01-05T10:20:03.887Z,99738.83
2019-01-05T10:24:33.263Z,99736.48
2019-01-05T10:28:46.038Z,99730.95
2019-01-05T10:32:57.823Z,99729.54
2019-01-05T10:37:09.005Z,99714.41
2019-01-05T10:41:18.801Z,99708.89
2019-01-05T10:45:28.609Z,99701.02
2019-01-05T10:49:39.366Z,99697.03
2019-01-05T10:53:27.111Z,99688.86
2019-01-05T10:58:02.835Z,99679.83
2019-01-05T11:02:11.679Z,99667.61
2019-01-05T11:06:12.304Z,99664.56
2019-01-05T11:10:19.110Z,99652.56
2019-01-05T11:14:30.770Z,99648.06
2019-01-05T11:18:42.383Z,99635.08
2019-01-05T11:22:42.222Z,99619.93
2019-01-05T11:27:08.178Z,99629.06
2019-01-05T11:31:25.718Z,99614.64
2019-01-05T11:35:57.209Z,99616.80
2019-01-05T11:40:02.913Z,99609.86
2019-01-05T11:44:20.097Z,99598.01
2019-01-05T11:48:34.231Z,99600.25
2019-01-05T11:52:34.102Z,99583.64
2019-01-05T11:56:54.528Z,99583.54
2019-01-05T12:01:10.409Z,99583.95
2019-01-05T12:05:16.465Z,99580.95
2019-01-05T12:09:20.216Z,99573.81
2019-01-05T12:13:15.967Z,99571.10
2019-01-05T12:17:17.602Z,99566.68
2019-01-05T12:21:20.330Z,99567.72
2019-01-05T12:25:42.358Z,99564.06
2019-01-05T12:30:02.015Z,99556.40
2019-01-05T12:34:37.834Z,99554.13
2019-01-05T12:39:16.039Z,99546.41
2019-01-05T12:43:22.823Z,99545.13
2019-01-05T12:48:00.950Z,99537.96
2019-01-05T12:52:05.301Z,99528.05
2019-01-05T12:56:22.736Z,99529.89
2019-01-05T13:00:22.231Z,99524.09
2019-01-05T13:04:34.089Z,99517.81
2019-01-05T13:09:12.518Z,99518.27
2019-01-05T13:13:28.221Z,99514.52
2019-01-05T13:17:48.606Z,99514.56
2019-01-05T13:21:35.602Z,99511.86
2019-01-05T13:25:45.249Z,99515.02
2019-01-05T13:29:35.753Z,99511.56
2019-01-05T13:33:51.067Z,99511.94
2019-01-05T13:37:50.360Z,99508.89
2019-01-05T13:41:54.306Z,99503.56
2019-01-05T13:46:23.648Z,99507.81
2019-01-05T13:50:33.017Z,99514.84
2019-01-05T13:54:14.125Z,99501.91
2019-01-05T13:57:41.677Z,99502.91
2019-01-05T14:01:06.195Z,99500.88
2019-01-05T14:04:30.677Z,99496.70
2019-01-05T14:08:13.624Z,99486.84
2019-01-05T14:11:46.969Z,99490.30
2019-01-05T14:15:11.420Z,99487.73
2019-01-05T14:18:44.865Z,99481.41
2019-01-05T14:22:08.080Z,99490.05
2019-01-05T14:25:41.303Z,99487.30
2019-01-05T14:29:12.075Z,99478.16
2019-01-05T14:32:35.604Z,99475.27
2019-01-05T14:36:15.684Z,99472.08
2019-01-05T14:39:52.338Z,99468.87
2019-01-05T14:43:15.599Z,99465.24
2019-01-05T14:46:43.381Z,99456.55
2019-01-05T14:50:26.166Z,99454.59
2019-01-05T14:53:49.196Z,99457.27
2019-01-05T14:57:12.345Z,99454.92
2019-01-05T15:00:33.909Z,99456.80
2019-01-05T15:04:10.742Z,99451.45
2019-01-05T15:07:33.876Z,99449.19
2019-01-05T15:11:04.519Z,99449.48
2019-01-05T15:14:38.044Z,99446.80
2019-01-05T15:18:05.335Z,99437.35
2019-01-05T15:21:35.676Z,99438.53
2019-01-05T15:25:06.278Z,99438.83
2019-01-05T15:28:29.589Z,99446.80
2019-01-05T15:32:00.102Z,99453.44
2019-01-05T15:35:23.596Z,99452.48
2019-01-05T15:38:54.282Z,99455.09
2019-01-05T15:42:27.808Z,99450.34
2019-01-05T15:45:55.355Z,99451.48
2019-01-05T15:49:19.837Z,99450.77
2019-01-05T15:52:43.173Z,99453.85
2019-01-05T15:56:10.676Z,99452.97
2019-01-05T15:59:34.074Z,99458.00
2019-01-05T16:02:57.648Z,99461.05
2019-01-05T16:06:37.543Z,99462.77
2019-01-05T16:10:17.067Z,99459.27
2019-01-05T16:13:40.190Z,99462.59
2019-01-05T16:17:08.023Z,99471.11
2019-01-05T16:20:31.441Z,99467.02
2019-01-05T16:24:02.368Z,99465.86
2019-01-05T16:27:25.712Z,99457.10
2019-01-05T16:30:50.207Z,99450.30
2019-01-05T16:34:20.834Z,99450.08
2019-01-05T16:38:00.458Z,99456.05
2019-01-05T16:41:23.520Z,99459.63
2019-01-05T16:44:54.240Z,99458.22
2019-01-05T16:48:27.730Z,99459.22
2019-01-05T16:51:55.060Z,99456.47
2019-01-05T16:55:19.544Z,99462.31
2019-01-05T16:58:43.064Z,99454.95
2019-01-05T17:02:22.604Z,99455.17
2019-01-05T17:05:58.982Z,99452.22
2019-01-05T17:09:34.418Z,99451.37
2019-01-05T17:13:01.738Z,99454.44
2019-01-05T17:16:32.163Z,99453.25
2019-01-05T17:19:49.427Z,99455.27
2019-01-05T17:23:16.752Z,99454.41
2019-01-05T17:26:41.350Z,99451.74
2019-01-05T17:30:01.079Z,99451.91
2019-01-05T17:33:26.211Z,99449.73
2019-01-05T17:36:49.611Z,99448.58
2019-01-05T17:40:29.324Z,99451.31
2019-01-05T17:43:53.859Z,99453.30
2019-01-05T17:47:24.489Z,99449.05
2019-01-05T17:51:01.142Z,99447.94
2019-01-05T17:54:24.524Z,99441.28
2019-01-05T17:57:47.951Z,99437.62
2019-01-05T18:01:11.540Z,99433.30
2019-01-05T18:04:38.955Z,99429.55
2019-01-05T18:08:02.118Z,99429.84
2019-01-05T18:11:25.323Z,99423.16
2019-01-05T18:15:02.092Z,99424.97
2019-01-05T18:18:42.236Z,99416.21
2019-01-05T18:22:03.538Z,99420.09
2019-01-05T18:25:39.934Z,99420.27
2019-01-05T18:29:03.472Z,99414.12
2019-01-05T18:32:28.004Z,99411.74
2019-01-05T18:35:58.552Z,99416.92
2019-01-05T18:39:23.140Z,99410.22
2019-01-05T18:42:53.550Z,99410.53
2019-01-05T18:46:18.297Z,99408.99
2019-01-05T18:49:41.535Z,99405.09
2019-01-05T18:53:03.332Z,99404.80
2019-01-05T18:56:43.237Z,99407.42
2019-01-05T19:00:18.018Z,99393.98
2019-01-05T19:03:49.990Z,99393.81
2019-01-05T19:07:17.550Z,99397.13
2019-01-05T19:10:48.157Z,99394.28
2019-01-05T19:14:11.569Z,99396.47
2019-01-05T19:17:34.909Z,99396.98
2019-01-05T19:21:08.518Z,99397.45
2019-01-05T19:24:31.765Z,99395.59
2019-01-05T19:27:56.227Z,99392.86
2019-01-05T19:31:26.622Z,99393.48
2019-01-05T19:34:51.089Z,99391.84
2019-01-05T19:38:24.906Z,99385.05
2019-01-05T19:41:45.970Z,99390.52
2019-01-05T19:45:09.382Z,99384.03
2019-01-05T19:48:32.501Z,99383.29
2019-01-05T19:51:55.664Z,99385.29
2019-01-05T19:55:19.014Z,99388.75
2019-01-05T19:58:42.360Z,99385.85
2019-01-05T20:02:05.487Z,99380.60
2019-01-05T20:05:29.982Z,99376.58
2019-01-05T20:09:12.675Z,99381.48
2019-01-05T20:12:37.186Z,99375.50
2019-01-05T20:16:07.622Z,99386.92
2019-01-05T20:19:30.786Z,99384.70
2019-01-05T20:22:53.918Z,99373.78
2019-01-05T20:26:18.505Z,99371.33
2019-01-05T20:29:41.845Z,99372.31
2019-01-05T20:33:12.181Z,99366.88
2019-01-05T20:36:36.800Z,99373.63
2019-01-05T20:39:53.857Z,99361.30
2019-01-05T20:43:24.504Z,99369.50
2019-01-05T20:46:46.094Z,99365.10
2019-01-05T20:50:09.525Z,99359.00
2019-01-05T20:53:46.147Z,99356.28
2019-01-05T20:57:16.631Z,99354.55
2019-01-05T21:00:43.885Z,99350.17
2019-01-05T21:04:14.614Z,99341.41
2019-01-05T21:07:38.229Z,99337.39
2019-01-05T21:11:08.859Z,99335.95
2019-01-05T21:14:31.950Z,99336.23
2019-01-05T21:18:11.685Z,99336.34
2019-01-05T21:21:35.941Z,99326.34
2019-01-05T21:24:59.130Z,99323.83
2019-01-05T21:29:03.584Z,99316.58
2019-01-05T21:32:50.647Z,99318.62
2019-01-05T21:36:29.164Z,99317.83
2019-01-05T21:40:12.551Z,99304.05
2019-01-05T21:43:41.623Z,99305.45
2019-01-05T21:47:04.718Z,99299.70
2019-01-05T21:50:28.152Z,99295.33
2019-01-05T21:54:04.790Z,99286.24
2019-01-05T21:57:26.953Z,99287.86
2019-01-05T22:01:06.933Z,99281.50
2019-01-05T22:04:40.620Z,99273.70
2019-01-05T22:08:04.115Z,99267.29
2019-01-05T22:11:34.506Z,99266.56
2019-01-05T22:15:15.751Z,99257.97
2019-01-05T22:18:36.387Z,99247.31
2019-01-05T22:22:12.936Z,99242.55
2019-01-05T22:25:36.294Z,99245.59
2019-01-05T22:28:59.402Z,99236.61
2019-01-05T22:32:26.653Z,99230.25
2019-01-05T22:35:45.176Z,99222.78
2019-01-05T22:39:08.642Z,99214.35
2019-01-05T22:42:33.166Z,99217.11
2019-01-05T22:45:56.315Z,99204.14
2019-01-05T22:49:23.548Z,99200.85
2019-01-05T22:52:46.865Z,99200.11
2019-01-05T22:56:29.726Z,99206.94
2019-01-05T22:59:53.099Z,99197.77
2019-01-05T23:03:14.460Z,99185.59
2019-01-05T23:06:41.952Z,99182.25
2019-01-05T23:10:12.247Z,99173.66
2019-01-05T23:13:34.192Z,99173.42
2019-01-05T23:16:57.259Z,99163.84
2019-01-05T23:20:31.237Z,99162.38
2019-01-05T23:23:55.737Z,99158.47
2019-01-05T23:27:19.081Z,99163.41
2019-01-05T23:30:49.674Z,99155.87
2019-01-05T23:34:14.161Z,99158.77
2019-01-05T23:37:38.603Z,99159.04
2019-01-05T23:41:18.082Z,99162.97
2019-01-05T23:44:45.362Z,99154.70
2019-01-05T23:48:05.195Z,99149.72
2019-01-05T23:51:42.455Z,99145.11
2019-01-05T23:55:16.897Z,99151.78
2019-01-05T23:58:42.135Z,99144.08
